Time;durP1;ratioP1;P1;durP2;ratioP2;P2;SDS_P1;SDS_P2;PMS_P1;PMS_P2;Temp;Humidity;BMP_temperature;BMP_pressure;BME280_temperature;BME280_humidity;BME280_pressure;Samples;Min_cycle;Max_cycle;Signal;HPM_P1;HPM_P2
2021/09/07 00:01:45;;;;;;;43.50;17.15;;;;;;;;;;4974913;28;20081;-63
2021/09/07 00:04:12;;;;;;;44.30;18.73;;;;;;;;;;4981822;28;20058;-63
2021/09/07 00:06:39;;;;;;;54.85;18.67;;;;;;;;;;4987367;28;20093;-63
2021/09/07 00:09:05;;;;;;;47.97;18.80;;;;;;;;;;4980054;28;20502;-63
2021/09/07 00:11:32;;;;;;;44.47;18.88;;;;;;;;;;4980664;28;20174;-63
2021/09/07 00:13:59;;;;;;;47.83;18.50;;;;;;;;;;4983204;28;20055;-63
2021/09/07 00:16:25;;;;;;;47.70;20.45;;;;;;;;;;4981801;28;20112;-63
2021/09/07 00:18:52;;;;;;;39.25;18.35;;;;;;;;;;4982003;28;20073;-63
2021/09/07 00:21:18;;;;;;;42.80;17.40;;;;;;;;;;4983247;28;20523;-63
2021/09/07 00:23:45;;;;;;;38.33;17.13;;;;;;;;;;4979555;28;20370;-63
2021/09/07 00:26:11;;;;;;;53.53;19.77;;;;;;;;;;4982555;28;20661;-63
2021/09/07 00:28:38;;;;;;;46.03;18.60;;;;;;;;;;4977576;28;20141;-63
2021/09/07 00:31:04;;;;;;;44.90;18.85;;;;;;;;;;4979952;28;20141;-63
2021/09/07 00:33:31;;;;;;;50.67;19.48;;;;;;;;;;4984600;28;20077;-63
2021/09/07 00:35:58;;;;;;;43.22;19.13;;;;;;;;;;4975295;28;20179;-63
2021/09/07 00:38:24;;;;;;;48.90;19.70;;;;;;;;;;4982963;28;20138;-63
2021/09/07 00:40:51;;;;;;;48.25;18.88;;;;;;;;;;4982953;28;20161;-63
2021/09/07 00:43:17;;;;;;;49.75;20.67;;;;;;;;;;4981591;28;20137;-63
2021/09/07 00:45:44;;;;;;;57.45;22.42;;;;;;;;;;4982458;28;20185;-63
2021/09/07 00:48:11;;;;;;;55.08;20.15;;;;;;;;;;4977627;28;20088;-63
2021/09/07 00:50:38;;;;;;;47.63;16.83;;;;;;;;;;4976322;28;20138;-63
2021/09/07 00:53:04;;;;;;;38.83;15.00;;;;;;;;;;4987908;28;20409;-63
2021/09/07 00:55:32;;;;;;;36.88;16.60;;;;;;;;;;4981358;28;20069;-62
2021/09/07 00:58:01;;;;;;;46.78;17.63;;;;;;;;;;4983864;28;20145;-63
2021/09/07 01:00:28;;;;;;;60.00;19.50;;;;;;;;;;4979531;28;20078;-63
2021/09/07 01:02:54;;;;;;;68.95;20.73;;;;;;;;;;4976567;28;20046;-62
2021/09/07 01:05:21;;;;;;;42.65;17.52;;;;;;;;;;4980354;28;20047;-63
2021/09/07 01:07:48;;;;;;;63.83;21.08;;;;;;;;;;4981778;28;20079;-63
2021/09/07 01:10:14;;;;;;;51.25;20.85;;;;;;;;;;4975885;28;20074;-63
2021/09/07 01:12:41;;;;;;;67.05;21.88;;;;;;;;;;4977855;28;20198;-63
2021/09/07 01:15:07;;;;;;;66.57;22.40;;;;;;;;;;4980667;28;20089;-62
2021/09/07 01:17:35;;;;;;;;;;;;;;;;;;4982192;28;20046;-63
2021/09/07 01:20:01;;;;;;;61.55;21.90;;;;;;;;;;4979790;28;20005;-62
2021/09/07 01:22:28;;;;;;;64.80;22.23;;;;;;;;;;4980423;28;20086;-63
2021/09/07 01:24:54;;;;;;;55.17;22.13;;;;;;;;;;4978357;28;20129;-63
2021/09/07 01:27:21;;;;;;;64.82;22.75;;;;;;;;;;4981960;28;20384;-62
2021/09/07 01:29:48;;;;;;;90.97;26.10;;;;;;;;;;4977344;28;20129;-63
2021/09/07 01:32:16;;;;;;;69.18;23.15;;;;;;;;;;4975788;28;20082;-63
2021/09/07 01:34:43;;;;;;;79.85;24.48;;;;;;;;;;4979492;28;21618;-63
2021/09/07 01:37:09;;;;;;;67.82;21.60;;;;;;;;;;4983942;28;20601;-63
2021/09/07 01:39:36;;;;;;;88.75;26.25;;;;;;;;;;4991798;28;20074;-62
2021/09/07 01:42:03;;;;;;;135.13;30.73;;;;;;;;;;4987097;28;20101;-63
2021/09/07 01:44:32;;;;;;;119.30;29.42;;;;;;;;;;4976591;28;20130;-63
2021/09/07 01:46:59;;;;;;;160.55;30.80;;;;;;;;;;4987095;28;20142;-62
2021/09/07 01:49:25;;;;;;;137.98;29.58;;;;;;;;;;4989117;28;20055;-62
2021/09/07 01:51:52;;;;;;;152.80;31.52;;;;;;;;;;4981771;28;20066;-62
2021/09/07 01:54:21;;;;;;;127.75;28.70;;;;;;;;;;4987385;28;20117;-62
2021/09/07 01:56:47;;;;;;;117.90;28.65;;;;;;;;;;4982185;28;20093;-63
2021/09/07 01:59:14;;;;;;;155.20;30.35;;;;;;;;;;4988009;28;20118;-62
2021/09/07 02:01:41;;;;;;;148.23;29.83;;;;;;;;;;4981989;28;20126;-62
2021/09/07 02:04:08;;;;;;;171.05;31.73;;;;;;;;;;4990177;28;20105;-63
2021/09/07 02:06:34;;;;;;;125.40;25.38;;;;;;;;;;4980462;28;20051;-63
2021/09/07 02:09:01;;;;;;;144.93;28.23;;;;;;;;;;4982953;28;20157;-62
2021/09/07 02:11:27;;;;;;;118.00;26.50;;;;;;;;;;4985541;28;20776;-63
2021/09/07 02:13:54;;;;;;;139.90;28.98;;;;;;;;;;4988000;28;20074;-62
2021/09/07 02:16:20;;;;;;;99.82;27.52;;;;;;;;;;4980455;28;20634;-62
2021/09/07 02:18:47;;;;;;;98.03;28.08;;;;;;;;;;4976982;28;20054;-63
2021/09/07 02:21:14;;;;;;;74.78;24.13;;;;;;;;;;4987186;28;20046;-63
2021/09/07 02:23:40;;;;;;;76.13;25.58;;;;;;;;;;4979456;28;20133;-63
2021/09/07 02:26:07;;;;;;;88.63;28.65;;;;;;;;;;4986068;28;20093;-62
2021/09/07 02:28:34;;;;;;;84.53;27.95;;;;;;;;;;4986711;28;20084;-62
2021/09/07 02:31:00;;;;;;;83.03;28.98;;;;;;;;;;4982909;28;20147;-63
2021/09/07 02:33:27;;;;;;;87.05;28.42;;;;;;;;;;4984506;28;20058;-63
2021/09/07 02:35:53;;;;;;;97.07;30.73;;;;;;;;;;4978433;28;20046;-63
2021/09/07 02:38:20;;;;;;;78.47;28.02;;;;;;;;;;4982919;28;20112;-63
2021/09/07 02:40:47;;;;;;;92.95;29.95;;;;;;;;;;4981384;28;20487;-62
2021/09/07 02:43:13;;;;;;;84.68;29.55;;;;;;;;;;4982314;28;20082;-62
2021/09/07 02:45:39;;;;;;;77.90;26.45;;;;;;;;;;4986216;28;20129;-63
2021/09/07 02:48:06;;;;;;;66.93;24.10;;;;;;;;;;4983213;28;20050;-62
2021/09/07 02:50:33;;;;;;;67.28;25.67;;;;;;;;;;4976468;28;20074;-62
2021/09/07 02:52:59;;;;;;;80.13;27.90;;;;;;;;;;4986420;28;20150;-62
2021/09/07 02:55:26;;;;;;;79.78;28.05;;;;;;;;;;4989923;28;20147;-62
2021/09/07 02:57:52;;;;;;;91.78;28.27;;;;;;;;;;4982896;28;20137;-62
2021/09/07 03:00:19;;;;;;;82.03;27.10;;;;;;;;;;4982759;28;20074;-62
2021/09/07 03:02:45;;;;;;;80.70;27.33;;;;;;;;;;4982002;28;20134;-62
2021/09/07 03:05:13;;;;;;;83.27;27.93;;;;;;;;;;4980974;28;20058;-62
2021/09/07 03:07:39;;;;;;;82.30;26.30;;;;;;;;;;4980502;28;20154;-62
2021/09/07 03:10:06;;;;;;;64.63;24.70;;;;;;;;;;4977298;28;20146;-62
2021/09/07 03:12:32;;;;;;;69.53;25.42;;;;;;;;;;4982772;28;20137;-62
2021/09/07 03:14:59;;;;;;;83.07;28.75;;;;;;;;;;4979135;28;20125;-62
2021/09/07 03:17:26;;;;;;;71.57;27.63;;;;;;;;;;4982318;28;20499;-62
2021/09/07 03:19:52;;;;;;;77.22;28.00;;;;;;;;;;4984045;28;20121;-62
2021/09/07 03:22:18;;;;;;;85.57;30.60;;;;;;;;;;4985945;28;20046;-63
2021/09/07 03:24:45;;;;;;;83.50;28.35;;;;;;;;;;4980081;28;20089;-62
2021/09/07 03:27:12;;;;;;;94.22;29.90;;;;;;;;;;4981286;28;20080;-63
2021/09/07 03:29:38;;;;;;;79.55;28.85;;;;;;;;;;4978493;28;20137;-62
2021/09/07 03:32:05;;;;;;;99.85;31.52;;;;;;;;;;4988152;28;20093;-62
2021/09/07 03:34:31;;;;;;;104.38;31.60;;;;;;;;;;4987227;28;20568;-62
2021/09/07 03:36:58;;;;;;;87.20;28.95;;;;;;;;;;4983067;28;20145;-62
2021/09/07 03:39:24;;;;;;;103.88;33.38;;;;;;;;;;4986253;28;20050;-62
2021/09/07 03:41:51;;;;;;;104.50;32.55;;;;;;;;;;4984014;28;20100;-62
2021/09/07 03:44:17;;;;;;;87.13;30.48;;;;;;;;;;4986488;28;20482;-62
2021/09/07 03:46:44;;;;;;;107.68;33.83;;;;;;;;;;4981079;28;20129;-62
2021/09/07 03:49:10;;;;;;;105.78;32.17;;;;;;;;;;4984074;28;20156;-63
2021/09/07 03:51:37;;;;;;;95.38;31.60;;;;;;;;;;4983211;28;20074;-62
2021/09/07 03:54:03;;;;;;;127.88;34.90;;;;;;;;;;4979001;28;20085;-62
2021/09/07 03:56:30;;;;;;;111.70;33.75;;;;;;;;;;4985841;28;20141;-62
2021/09/07 03:58:57;;;;;;;109.70;34.03;;;;;;;;;;4975746;28;20084;-62
2021/09/07 04:01:24;;;;;;;118.70;33.07;;;;;;;;;;4977909;28;20479;-62
2021/09/07 04:03:50;;;;;;;129.63;36.33;;;;;;;;;;4981224;28;20669;-62
2021/09/07 04:06:17;;;;;;;142.68;36.63;;;;;;;;;;4980884;28;20261;-62
2021/09/07 04:08:44;;;;;;;142.18;36.75;;;;;;;;;;4984834;28;20129;-63
2021/09/07 04:11:10;;;;;;;163.05;38.35;;;;;;;;;;4978244;28;20062;-62
2021/09/07 04:13:37;;;;;;;168.50;38.88;;;;;;;;;;4984179;28;20586;-62
2021/09/07 04:16:03;;;;;;;145.10;37.13;;;;;;;;;;4975804;28;20047;-62
2021/09/07 04:18:30;;;;;;;123.57;35.47;;;;;;;;;;4986013;28;20486;-62
2021/09/07 04:20:57;;;;;;;88.38;28.95;;;;;;;;;;4986273;28;20611;-63
2021/09/07 04:23:24;;;;;;;146.27;37.30;;;;;;;;;;4982162;28;20473;-63
2021/09/07 04:25:53;;;;;;;77.90;30.45;;;;;;;;;;4985701;28;20057;-62
2021/09/07 04:28:20;;;;;;;98.43;33.65;;;;;;;;;;4981079;28;20054;-62
2021/09/07 04:30:46;;;;;;;95.15;32.53;;;;;;;;;;4979670;28;20456;-62
2021/09/07 04:33:13;;;;;;;109.20;34.97;;;;;;;;;;4981084;28;20062;-62
2021/09/07 04:35:39;;;;;;;111.63;35.47;;;;;;;;;;4980047;28;20510;-62
2021/09/07 04:38:06;;;;;;;91.53;32.45;;;;;;;;;;4983356;28;20074;-62
2021/09/07 04:40:32;;;;;;;101.82;35.70;;;;;;;;;;4982406;28;20129;-62
2021/09/07 04:42:59;;;;;;;109.93;36.65;;;;;;;;;;4986495;28;20054;-62
2021/09/07 04:45:25;;;;;;;111.60;35.63;;;;;;;;;;4975591;28;20077;-62
2021/09/07 04:47:52;;;;;;;118.37;36.27;;;;;;;;;;4984810;28;20121;-63
2021/09/07 04:50:18;;;;;;;131.68;36.13;;;;;;;;;;4981780;28;20047;-62
2021/09/07 04:52:45;;;;;;;118.50;35.67;;;;;;;;;;4982354;28;20070;-62
2021/09/07 04:55:11;;;;;;;132.80;38.05;;;;;;;;;;4981931;28;20046;-62
2021/09/07 04:57:38;;;;;;;146.30;37.78;;;;;;;;;;4978299;28;20129;-62
2021/09/07 05:00:05;;;;;;;126.82;37.50;;;;;;;;;;4983684;28;20154;-62
2021/09/07 05:02:35;;;;;;;119.47;35.75;;;;;;;;;;4984174;28;20130;-62
2021/09/07 05:05:02;;;;;;;117.43;34.63;;;;;;;;;;4980875;28;20046;-63
2021/09/07 05:07:30;;;;;;;109.72;34.67;;;;;;;;;;4978736;28;20051;-63
2021/09/07 05:09:56;;;;;;;107.45;35.60;;;;;;;;;;4984733;28;20050;-62
2021/09/07 05:12:25;;;;;;;102.32;34.78;;;;;;;;;;4988384;28;20559;-62
2021/09/07 05:14:51;;;;;;;99.78;35.63;;;;;;;;;;4989450;28;20085;-62
2021/09/07 05:17:18;;;;;;;92.47;32.90;;;;;;;;;;4986412;28;20046;-63
2021/09/07 05:19:44;;;;;;;76.88;30.38;;;;;;;;;;4985082;28;20150;-62
2021/09/07 05:22:11;;;;;;;100.82;33.45;;;;;;;;;;4993875;28;20136;-62
2021/09/07 05:24:37;;;;;;;85.90;31.27;;;;;;;;;;4982707;28;20151;-62
2021/09/07 05:27:03;;;;;;;86.95;29.90;;;;;;;;;;4987717;28;20402;-62
2021/09/07 05:29:30;;;;;;;66.25;26.40;;;;;;;;;;4987927;28;20145;-63
2021/09/07 05:31:57;;;;;;;74.53;29.33;;;;;;;;;;4986492;28;20050;-62
2021/09/07 05:34:23;;;;;;;71.20;27.67;;;;;;;;;;4990343;28;20581;-63
2021/09/07 05:36:53;;;;;;;76.28;27.48;;;;;;;;;;4981377;28;20047;-62
2021/09/07 05:39:19;;;;;;;66.15;26.92;;;;;;;;;;4981033;28;20056;-63
2021/09/07 05:41:46;;;;;;;68.95;28.35;;;;;;;;;;4986883;28;20074;-62
2021/09/07 05:44:12;;;;;;;65.85;25.63;;;;;;;;;;4988342;28;20082;-62
2021/09/07 05:46:39;;;;;;;70.47;26.65;;;;;;;;;;4984136;28;20074;-62
2021/09/07 05:49:05;;;;;;;71.07;25.33;;;;;;;;;;4985534;28;20055;-62
2021/09/07 05:51:32;;;;;;;57.97;23.85;;;;;;;;;;4986879;28;20077;-63
2021/09/07 05:53:58;;;;;;;72.47;23.42;;;;;;;;;;4984768;28;20137;-62
2021/09/07 05:56:25;;;;;;;64.50;24.35;;;;;;;;;;4982638;28;20046;-62
2021/09/07 05:58:51;;;;;;;68.93;25.37;;;;;;;;;;4981157;28;20051;-62
2021/09/07 06:01:18;;;;;;;56.80;23.88;;;;;;;;;;4984350;28;20477;-63
2021/09/07 06:03:44;;;;;;;52.55;22.10;;;;;;;;;;4989260;28;20053;-62
2021/09/07 06:06:12;;;;;;;73.90;24.92;;;;;;;;;;4980914;28;20059;-63
2021/09/07 06:08:40;;;;;;;50.92;20.90;;;;;;;;;;4980203;28;20089;-62
2021/09/07 06:11:06;;;;;;;;;;;;;;;;;;4987842;28;20113;-62
2021/09/07 06:13:33;;;;;;;51.58;19.15;;;;;;;;;;4988069;28;19926;-62
2021/09/07 06:16:00;;;;;;;56.25;22.45;;;;;;;;;;4973938;28;20047;-63
2021/09/07 06:18:27;;;;;;;35.20;18.08;;;;;;;;;;4980258;28;20049;-62
2021/09/07 06:20:54;;;;;;;46.65;20.45;;;;;;;;;;4985954;28;20137;-62
2021/09/07 06:23:21;;;;;;;52.45;19.33;;;;;;;;;;4986633;28;20097;-62
2021/09/07 06:25:48;;;;;;;40.80;18.98;;;;;;;;;;4988939;28;20085;-63
2021/09/07 06:28:17;;;;;;;46.00;20.20;;;;;;;;;;4979696;28;20080;-63
2021/09/07 06:30:44;;;;;;;46.63;18.15;;;;;;;;;;4989066;28;20490;-62
2021/09/07 06:33:10;;;;;;;41.03;17.73;;;;;;;;;;4978984;28;20093;-63
2021/09/07 06:35:37;;;;;;;45.88;18.58;;;;;;;;;;4987932;28;20130;-62
2021/09/07 06:38:03;;;;;;;42.00;17.45;;;;;;;;;;4981656;28;20086;-62
2021/09/07 06:40:30;;;;;;;37.65;17.50;;;;;;;;;;4984923;28;20133;-62
2021/09/07 06:42:56;;;;;;;45.53;19.17;;;;;;;;;;4987876;28;20125;-63
2021/09/07 06:45:23;;;;;;;35.25;17.15;;;;;;;;;;4983293;28;20525;-63
2021/09/07 06:47:50;;;;;;;35.72;16.27;;;;;;;;;;4981862;28;20089;-62
2021/09/07 06:50:16;;;;;;;41.75;17.23;;;;;;;;;;4983366;28;20074;-63
2021/09/07 06:52:43;;;;;;;36.95;17.73;;;;;;;;;;4975630;28;20078;-62
2021/09/07 06:55:09;;;;;;;37.05;17.85;;;;;;;;;;4980577;28;20074;-62
2021/09/07 06:57:36;;;;;;;41.47;18.48;;;;;;;;;;4977838;28;20469;-62
2021/09/07 07:00:04;;;;;;;46.30;17.17;;;;;;;;;;4976577;28;20137;-63
2021/09/07 07:02:31;;;;;;;39.75;16.67;;;;;;;;;;4986874;28;20058;-63
2021/09/07 07:05:01;;;;;;;35.72;15.13;;;;;;;;;;4982601;28;20105;-63
2021/09/07 07:07:28;;;;;;;33.92;15.10;;;;;;;;;;4983007;28;20087;-62
2021/09/07 07:09:54;;;;;;;33.58;14.90;;;;;;;;;;4986090;28;20088;-63
2021/09/07 07:12:21;;;;;;;35.25;15.07;;;;;;;;;;4972994;28;20051;-63
2021/09/07 07:14:47;;;;;;;33.53;15.40;;;;;;;;;;4982727;28;20050;-63
2021/09/07 07:17:14;;;;;;;32.35;15.15;;;;;;;;;;4987388;28;20082;-63
2021/09/07 07:19:40;;;;;;;27.13;14.60;;;;;;;;;;4979102;28;20054;-62
2021/09/07 07:22:07;;;;;;;31.43;14.50;;;;;;;;;;4987917;28;20139;-63
2021/09/07 07:24:33;;;;;;;26.73;13.65;;;;;;;;;;4987520;28;20073;-63
2021/09/07 07:27:01;;;;;;;29.25;13.38;;;;;;;;;;4988801;28;20081;-63
2021/09/07 07:29:27;;;;;;;27.92;12.95;;;;;;;;;;4979776;28;20146;-63
2021/09/07 07:31:54;;;;;;;30.47;13.47;;;;;;;;;;4986964;28;20446;-63
2021/09/07 07:34:20;;;;;;;28.75;13.07;;;;;;;;;;4985453;28;20426;-62
2021/09/07 07:36:47;;;;;;;25.27;11.68;;;;;;;;;;4982991;28;20137;-63
2021/09/07 07:39:14;;;;;;;25.88;12.38;;;;;;;;;;4981895;28;20054;-63
2021/09/07 07:41:40;;;;;;;22.07;12.00;;;;;;;;;;4984361;28;20046;-63
2021/09/07 07:44:07;;;;;;;26.83;10.82;;;;;;;;;;4983615;28;20054;-63
2021/09/07 07:46:35;;;;;;;19.30;9.98;;;;;;;;;;4984568;28;20522;-63
2021/09/07 07:49:02;;;;;;;24.17;10.55;;;;;;;;;;4981274;28;20133;-63
2021/09/07 07:51:28;;;;;;;23.08;10.27;;;;;;;;;;4985171;28;20164;-63
2021/09/07 07:53:55;;;;;;;21.63;9.02;;;;;;;;;;4985543;28;20137;-63
2021/09/07 07:56:21;;;;;;;22.48;9.00;;;;;;;;;;4983956;28;20080;-63
2021/09/07 07:58:48;;;;;;;17.45;8.82;;;;;;;;;;4976382;28;20137;-63
2021/09/07 08:01:14;;;;;;;19.33;8.88;;;;;;;;;;4983526;28;20129;-63
2021/09/07 08:03:45;;;;;;;19.80;9.38;;;;;;;;;;4989157;28;20468;-63
2021/09/07 08:06:13;;;;;;;17.77;8.80;;;;;;;;;;4980712;28;20057;-63
2021/09/07 08:08:39;;;;;;;19.50;8.80;;;;;;;;;;4982378;28;20129;-63
2021/09/07 08:11:06;;;;;;;20.27;9.80;;;;;;;;;;4986546;28;20137;-63
2021/09/07 08:13:32;;;;;;;18.40;9.38;;;;;;;;;;4986247;28;20085;-63
2021/09/07 08:15:59;;;;;;;16.43;8.80;;;;;;;;;;4974054;28;20502;-63
2021/09/07 08:18:25;;;;;;;21.15;8.68;;;;;;;;;;4983863;28;20290;-63
2021/09/07 08:20:52;;;;;;;19.63;8.40;;;;;;;;;;4981462;28;20088;-63
2021/09/07 08:23:18;;;;;;;16.85;7.72;;;;;;;;;;4983984;28;20410;-63
2021/09/07 08:25:45;;;;;;;19.05;8.43;;;;;;;;;;4983314;28;20153;-63
2021/09/07 08:28:11;;;;;;;21.35;9.82;;;;;;;;;;4981116;28;20161;-63
2021/09/07 08:30:38;;;;;;;20.25;8.80;;;;;;;;;;4981377;28;20082;-63
2021/09/07 08:33:10;;;;;;;18.05;8.55;;;;;;;;;;4987127;28;20146;-63
2021/09/07 08:35:36;;;;;;;18.42;9.57;;;;;;;;;;4981297;28;20154;-63
2021/09/07 08:38:03;;;;;;;18.55;8.70;;;;;;;;;;4979735;28;20081;-63
2021/09/07 08:40:30;;;;;;;16.33;8.35;;;;;;;;;;4983799;28;20039;-63
2021/09/07 08:42:57;;;;;;;20.50;8.95;;;;;;;;;;4981486;28;20137;-63
2021/09/07 08:45:24;;;;;;;16.13;9.37;;;;;;;;;;4984379;28;20087;-63
2021/09/07 08:47:50;;;;;;;16.43;8.93;;;;;;;;;;4983084;28;20141;-62
2021/09/07 08:50:16;;;;;;;17.63;8.05;;;;;;;;;;4977350;28;20133;-62
2021/09/07 08:52:43;;;;;;;26.42;8.98;;;;;;;;;;4987521;28;20149;-63
2021/09/07 08:55:10;;;;;;;17.70;9.18;;;;;;;;;;4984750;28;20494;-62
2021/09/07 08:57:36;;;;;;;19.98;9.30;;;;;;;;;;4983753;28;20517;-62
2021/09/07 09:00:04;;;;;;;18.98;8.82;;;;;;;;;;4982417;28;20089;-62
2021/09/07 09:02:38;;;;;;;23.80;9.50;;;;;;;;;;4984133;28;20077;-62
2021/09/07 09:05:05;;;;;;;20.92;9.05;;;;;;;;;;4987614;28;20145;-63
2021/09/07 09:07:33;;;;;;;22.55;9.90;;;;;;;;;;4981443;28;20084;-63
2021/09/07 09:09:59;;;;;;;19.13;8.70;;;;;;;;;;4987210;28;20058;-63
2021/09/07 09:12:27;;;;;;;27.65;10.25;;;;;;;;;;4977684;28;20050;-63
2021/09/07 09:14:54;;;;;;;16.40;8.60;;;;;;;;;;4989589;28;20569;-62
2021/09/07 09:17:24;;;;;;;21.77;8.83;;;;;;;;;;4981271;28;20089;-62
2021/09/07 09:19:50;;;;;;;20.10;8.90;;;;;;;;;;4988799;28;20299;-62
2021/09/07 09:22:17;;;;;;;19.40;9.45;;;;;;;;;;4986702;28;20169;-63
2021/09/07 09:24:44;;;;;;;18.33;8.70;;;;;;;;;;4985994;28;20046;-63
2021/09/07 09:27:11;;;;;;;23.60;8.65;;;;;;;;;;4982403;28;20785;-62
2021/09/07 09:29:40;;;;;;;15.05;7.72;;;;;;;;;;4978116;28;20569;-63
2021/09/07 09:32:09;;;;;;;16.90;7.90;;;;;;;;;;4987125;28;20089;-63
2021/09/07 09:34:36;;;;;;;16.35;7.97;;;;;;;;;;4980361;28;20086;-63
2021/09/07 09:37:10;;;;;;;17.38;8.18;;;;;;;;;;4979160;28;20134;-63
2021/09/07 09:39:36;;;;;;;16.73;8.80;;;;;;;;;;4980600;28;20086;-63
2021/09/07 09:42:04;;;;;;;18.90;7.90;;;;;;;;;;4976222;28;20131;-63
2021/09/07 09:44:30;;;;;;;13.90;7.70;;;;;;;;;;4981212;28;20081;-63
2021/09/07 09:46:57;;;;;;;21.48;8.20;;;;;;;;;;4983608;28;20130;-63
2021/09/07 09:49:27;;;;;;;13.00;8.13;;;;;;;;;;4986166;28;20544;-63
2021/09/07 09:52:04;;;;;;;13.65;7.28;;;;;;;;;;4988671;28;20097;-62
2021/09/07 09:54:31;;;;;;;14.30;7.90;;;;;;;;;;4978578;28;20561;-63
2021/09/07 09:56:58;;;;;;;19.70;7.95;;;;;;;;;;4980700;28;20082;-63
2021/09/07 09:59:27;;;;;;;18.58;7.53;;;;;;;;;;4983011;28;20101;-62
2021/09/07 10:01:54;;;;;;;18.00;8.38;;;;;;;;;;4984506;28;20135;-63
2021/09/07 10:04:21;;;;;;;;;;;;;;;;;;4984466;28;20047;-63
2021/09/07 10:06:51;;;;;;;19.05;8.45;;;;;;;;;;4984819;28;19976;-63
2021/09/07 10:09:22;;;;;;;19.15;7.90;;;;;;;;;;4986377;28;20038;-63
2021/09/07 10:12:08;;;;;;;16.27;8.02;;;;;;;;;;4983610;28;20129;-62
2021/09/07 10:14:36;;;;;;;16.67;6.93;;;;;;;;;;4985243;28;20078;-63
2021/09/07 10:18:04;;;;;;;17.23;7.88;;;;;;;;;;4976532;28;20130;-63
2021/09/07 10:25:52;;;;;;;14.38;7.35;;;;;;;;;;4981483;28;20492;-62
2021/09/07 10:28:32;;;;;;;20.05;8.25;;;;;;;;;;4983670;28;20081;-63
2021/09/07 10:31:00;;;;;;;17.98;7.72;;;;;;;;;;4980027;28;20490;-63
2021/09/07 10:33:27;;;;;;;15.77;7.70;;;;;;;;;;4983162;28;20490;-63
2021/09/07 10:36:03;;;;;;;17.17;7.00;;;;;;;;;;4987869;28;20152;-62
2021/09/07 10:38:35;;;;;;;14.40;7.10;;;;;;;;;;4983304;28;20137;-62
2021/09/07 10:41:01;;;;;;;12.35;7.05;;;;;;;;;;4978451;28;20134;-63
2021/09/07 10:43:47;;;;;;;17.33;7.30;;;;;;;;;;4980672;28;20133;-62
2021/09/07 10:46:13;;;;;;;15.32;7.25;;;;;;;;;;4982039;28;20058;-63
2021/09/07 10:48:40;;;;;;;13.07;6.80;;;;;;;;;;4983615;28;20050;-63
2021/09/07 10:51:06;;;;;;;16.77;7.95;;;;;;;;;;4987029;28;20413;-63
2021/09/07 10:53:33;;;;;;;19.58;8.55;;;;;;;;;;4978981;28;20418;-63
2021/09/07 10:56:18;;;;;;;16.25;7.55;;;;;;;;;;4982700;28;20047;-63
2021/09/07 10:58:46;;;;;;;15.05;8.02;;;;;;;;;;4985950;28;20146;-63
2021/09/07 11:01:28;;;;;;;14.85;7.95;;;;;;;;;;4986594;28;20137;-63
2021/09/07 11:04:14;;;;;;;20.73;8.32;;;;;;;;;;4985414;28;20066;-63
2021/09/07 11:06:41;;;;;;;16.75;7.82;;;;;;;;;;4984090;28;20140;-62
2021/09/07 11:09:27;;;;;;;17.92;8.25;;;;;;;;;;4984043;28;20073;-63
2021/09/07 11:12:14;;;;;;;18.17;7.93;;;;;;;;;;4985193;28;20051;-63
2021/09/07 11:14:58;;;;;;;15.95;8.63;;;;;;;;;;4985305;28;20082;-62
2021/09/07 11:17:26;;;;;;;17.38;8.27;;;;;;;;;;4982753;28;20089;-62
2021/09/07 11:20:08;;;;;;;17.43;7.40;;;;;;;;;;4983112;28;20217;-63
2021/09/07 11:22:35;;;;;;;17.23;9.35;;;;;;;;;;4979345;28;20043;-63
2021/09/07 11:25:02;;;;;;;18.90;8.27;;;;;;;;;;4984290;28;20138;-63
2021/09/07 11:27:46;;;;;;;19.48;8.30;;;;;;;;;;4987344;28;20378;-63
2021/09/07 11:30:25;;;;;;;19.83;9.10;;;;;;;;;;4987876;28;20086;-62
2021/09/07 11:32:56;;;;;;;20.30;9.23;;;;;;;;;;4974594;28;20122;-63
2021/09/07 11:35:22;;;;;;;16.40;8.95;;;;;;;;;;4986576;28;20462;-63
2021/09/07 11:37:49;;;;;;;20.45;9.35;;;;;;;;;;4985102;28;20125;-62
2021/09/07 11:40:17;;;;;;;19.58;9.52;;;;;;;;;;4985348;28;20133;-62
2021/09/07 11:42:44;;;;;;;17.00;8.43;;;;;;;;;;4980387;28;20130;-62
2021/09/07 11:45:17;;;;;;;18.65;9.38;;;;;;;;;;4986261;28;20146;-62
2021/09/07 11:47:45;;;;;;;29.02;9.23;;;;;;;;;;4978376;28;20085;-63
2021/09/07 11:50:27;;;;;;;18.48;9.07;;;;;;;;;;4983834;28;20133;-62
2021/09/07 11:52:54;;;;;;;21.15;9.60;;;;;;;;;;4980671;28;20133;-62
2021/09/07 11:55:39;;;;;;;16.60;9.63;;;;;;;;;;4981896;28;20673;-63
2021/09/07 11:58:06;;;;;;;15.82;9.32;;;;;;;;;;4976169;28;20061;-62
2021/09/07 12:00:33;;;;;;;15.43;9.30;;;;;;;;;;4981953;28;20134;-62
2021/09/07 12:03:00;;;;;;;;;;;;;;;;;;4980963;28;20050;-63
2021/09/07 12:05:47;;;;;;;19.23;9.65;;;;;;;;;;4981825;28;20362;-62
2021/09/07 12:08:14;;;;;;;19.38;8.65;;;;;;;;;;4984819;28;20092;-62
2021/09/07 12:10:49;;;;;;;18.57;9.13;;;;;;;;;;4983437;28;20082;-62
2021/09/07 12:13:20;;;;;;;17.55;9.45;;;;;;;;;;4980693;28;20735;-62
2021/09/07 12:15:46;;;;;;;14.48;9.13;;;;;;;;;;4980797;28;20053;-62
2021/09/07 12:18:30;;;;;;;13.98;8.73;;;;;;;;;;4982990;28;20425;-62
2021/09/07 12:21:32;;;;;;;15.27;8.13;;;;;;;;;;4984111;28;20142;-62
2021/09/07 12:23:59;;;;;;;17.13;8.70;;;;;;;;;;4909410;29;20059;-62
2021/09/07 12:26:43;;;;;;;13.80;8.57;;;;;;;;;;4963240;28;20117;-62
2021/09/07 12:29:14;;;;;;;14.43;7.95;;;;;;;;;;4971850;28;20414;-62
2021/09/07 12:31:41;;;;;;;18.23;8.65;;;;;;;;;;4982894;28;20112;-62
2021/09/07 12:34:08;;;;;;;20.43;8.83;;;;;;;;;;4985367;28;20410;-62
2021/09/07 12:36:42;;;;;;;20.30;8.40;;;;;;;;;;4983848;28;20359;-62
2021/09/07 12:39:08;;;;;;;16.27;8.43;;;;;;;;;;4981375;28;20097;-62
2021/09/07 12:41:35;;;;;;;18.15;9.18;;;;;;;;;;4985886;28;20142;-62
2021/09/07 12:44:01;;;;;;;16.88;8.50;;;;;;;;;;4976110;28;20078;-62
2021/09/07 12:46:28;;;;;;;22.17;9.00;;;;;;;;;;4978871;28;20051;-62
2021/09/07 12:48:54;;;;;;;13.48;8.07;;;;;;;;;;4985076;28;20060;-62
2021/09/07 12:51:23;;;;;;;15.93;8.02;;;;;;;;;;4988256;28;20046;-62
2021/09/07 12:53:58;;;;;;;16.33;8.05;;;;;;;;;;4979482;28;20487;-62
2021/09/07 12:56:29;;;;;;;14.65;8.77;;;;;;;;;;4978665;28;20157;-62
2021/09/07 12:59:01;;;;;;;19.73;8.13;;;;;;;;;;4984932;28;20047;-62
2021/09/07 13:01:28;;;;;;;19.42;8.55;;;;;;;;;;4986832;28;20086;-62
2021/09/07 13:03:56;;;;;;;14.15;7.68;;;;;;;;;;4980286;28;20053;-62
2021/09/07 13:06:26;;;;;;;9.85;6.65;;;;;;;;;;4982543;28;20520;-62
2021/09/07 13:08:53;;;;;;;;;;;;;;;;;;4983817;28;20220;-62
2021/09/07 13:11:20;;;;;;;19.67;9.52;;;;;;;;;;4979359;28;19973;-62
2021/09/07 13:13:48;;;;;;;21.52;10.05;;;;;;;;;;4983617;28;20561;-62
2021/09/07 13:16:15;;;;;;;21.38;10.77;;;;;;;;;;4984186;28;20141;-63
2021/09/07 13:18:42;;;;;;;19.08;10.02;;;;;;;;;;4983932;28;20057;-62
2021/09/07 13:21:12;;;;;;;24.50;12.20;;;;;;;;;;4983864;28;20078;-62
2021/09/07 13:23:39;;;;;;;20.48;11.57;;;;;;;;;;4977676;28;20133;-62
2021/09/07 13:26:07;;;;;;;22.45;11.35;;;;;;;;;;4983574;28;20129;-62
2021/09/07 13:28:33;;;;;;;28.80;11.93;;;;;;;;;;4984206;28;20130;-62
2021/09/07 13:31:06;;;;;;;22.27;11.60;;;;;;;;;;4976329;28;20549;-62
2021/09/07 13:33:33;;;;;;;23.70;12.70;;;;;;;;;;4984541;28;20078;-62
2021/09/07 13:36:00;;;;;;;25.80;11.63;;;;;;;;;;4986168;28;20133;-62
2021/09/07 13:38:26;;;;;;;23.15;10.98;;;;;;;;;;4977106;28;20129;-62
2021/09/07 13:40:52;;;;;;;16.38;10.07;;;;;;;;;;4982756;28;20126;-62
2021/09/07 13:43:20;;;;;;;15.75;9.65;;;;;;;;;;4985236;28;20085;-62
2021/09/07 13:45:46;;;;;;;17.33;9.43;;;;;;;;;;4986706;28;20054;-62
2021/09/07 13:48:13;;;;;;;17.58;10.40;;;;;;;;;;4989560;28;20046;-62
2021/09/07 13:50:40;;;;;;;15.07;9.02;;;;;;;;;;4986605;28;20133;-62
2021/09/07 13:53:06;;;;;;;15.63;9.32;;;;;;;;;;4983691;28;20125;-62
2021/09/07 13:55:33;;;;;;;23.80;8.73;;;;;;;;;;4981636;28;20074;-62
2021/09/07 13:58:01;;;;;;;14.70;8.55;;;;;;;;;;4982275;28;20133;-62
2021/09/07 14:00:27;;;;;;;16.27;8.68;;;;;;;;;;4987167;28;20158;-62
2021/09/07 14:02:54;;;;;;;14.93;8.40;;;;;;;;;;4989790;28;20662;-62
2021/09/07 14:05:21;;;;;;;12.65;8.32;;;;;;;;;;4990422;28;20097;-62
2021/09/07 14:07:48;;;;;;;14.63;8.40;;;;;;;;;;4987761;28;20066;-62
2021/09/07 14:10:14;;;;;;;18.27;9.10;;;;;;;;;;4987249;28;20046;-62
2021/09/07 14:12:43;;;;;;;12.55;8.27;;;;;;;;;;4986004;28;20610;-62
2021/09/07 14:15:10;;;;;;;13.55;8.10;;;;;;;;;;4995143;28;20058;-62
2021/09/07 14:17:37;;;;;;;16.27;8.55;;;;;;;;;;4988764;28;20074;-62
2021/09/07 14:20:05;;;;;;;16.08;9.00;;;;;;;;;;4984684;28;20078;-62
2021/09/07 14:22:32;;;;;;;18.75;9.50;;;;;;;;;;4983442;28;20376;-62
2021/09/07 14:24:58;;;;;;;15.77;8.73;;;;;;;;;;4985016;28;20058;-62
2021/09/07 14:27:29;;;;;;;12.85;7.97;;;;;;;;;;4988608;28;20089;-62
2021/09/07 14:29:56;;;;;;;18.52;9.27;;;;;;;;;;4988962;28;20477;-62
2021/09/07 14:32:23;;;;;;;17.20;9.20;;;;;;;;;;4976673;28;20086;-62
2021/09/07 14:34:49;;;;;;;15.33;8.47;;;;;;;;;;4976878;28;20835;-62